Ida Theresa — V7RQ9 — position and weather

sailwx.info

Track history (hours):
 
Tides and Currents Weather Stations Pressure Air Temp Water Temp Dewpoint Dewpoint Depression Visibility Wind Speed Wind Dir Waves Ship Positions

Ida Theresa

Last reported at 2018-Apr-07 02:24 UTC. Time now 2018-Apr-23 23:27 UTC.
Position N 23°26' E 119°51'.
Warning: this ship's position is 16 days out of date.

Length 177 m; draft 10.2 m.

Type: Cargo ship. MMSI: 538007863.

Date/timePositionNaut miles runAvg speedWind from/ knotsBaromVisibWave heightAir tempDewpointWater temp
2018-Apr-07 02:24N 23°26' E 119°51'10113.4
2018-Apr-06 18:53N 24°54' E 120°44'1613.3
2018-Apr-06 17:39N 25°07' E 120°55'713.7
2018-Apr-06 17:09N 25°12' E 121°00'213.7
2018-Apr-06 17:00N 25°14' E 121°02'713.8
2018-Apr-06 16:30N 25°19' E 121°07'713.9
2018-Apr-06 16:00N 25°25' E 121°11'  
2018-Apr-04 07:39N 34°29' E 130°08'63312.4
2018-Apr-02 04:38N 41°21' E 140°17'1 8.8
2018-Apr-02 04:28N 41°22' E 140°19'510.1
2018-Apr-02 04:00N 41°25' E 140°24'510.6
2018-Apr-02 03:30N 41°28' E 140°29'5 9.8
2018-Apr-02 02:59N 41°31' E 140°35'511.3
2018-Apr-02 02:30N 41°34' E 140°41'510.2
2018-Apr-02 02:00N 41°37' E 140°47'5 9.5
2018-Apr-02 01:30N 41°38' E 140°53'5 9.7
2018-Apr-02 01:00N 41°38' E 140°59'510.6
2018-Apr-02 00:30N 41°38' E 141°06'713.1
2018-Apr-02 00:00N 41°37' E 141°15'612.5
2018-Apr-01 23:30N 41°37' E 141°24'610.9
2018-Apr-01 22:56N 41°36' E 141°32'  
Track history (hours):
 
Tides and Currents Weather Stations Pressure Air Temp Water Temp Dewpoint Dewpoint Depression Visibility Wind Speed Wind Dir Waves Ship Positions

Ida Theresa

Last reported at 2018-Apr-07 02:24 UTC. Time now 2018-Apr-23 23:27 UTC.
Position N 23°26' E 119°51'.
Warning: this ship's position is 16 days out of date.

Length 177 m; draft 10.2 m.

Type: Cargo ship. MMSI: 538007863.

Date/timePositionNaut miles runAvg speedWind from/ knotsBaromVisibWave heightAir tempDewpointWater temp
2018-Apr-07 02:24N 23°26' E 119°51'10113.4
2018-Apr-06 18:53N 24°54' E 120°44'1613.3
2018-Apr-06 17:39N 25°07' E 120°55'713.7
2018-Apr-06 17:09N 25°12' E 121°00'213.7
2018-Apr-06 17:00N 25°14' E 121°02'713.8
2018-Apr-06 16:30N 25°19' E 121°07'713.9
2018-Apr-06 16:00N 25°25' E 121°11'  
2018-Apr-04 07:39N 34°29' E 130°08'63312.4
2018-Apr-02 04:38N 41°21' E 140°17'1 8.8
2018-Apr-02 04:28N 41°22' E 140°19'510.1
2018-Apr-02 04:00N 41°25' E 140°24'510.6
2018-Apr-02 03:30N 41°28' E 140°29'5 9.8
2018-Apr-02 02:59N 41°31' E 140°35'511.3
2018-Apr-02 02:30N 41°34' E 140°41'510.2
2018-Apr-02 02:00N 41°37' E 140°47'5 9.5
2018-Apr-02 01:30N 41°38' E 140°53'5 9.7
2018-Apr-02 01:00N 41°38' E 140°59'510.6
2018-Apr-02 00:30N 41°38' E 141°06'713.1
2018-Apr-02 00:00N 41°37' E 141°15'612.5
2018-Apr-01 23:30N 41°37' E 141°24'610.9
2018-Apr-01 22:56N 41°36' E 141°32'  

Dump ship's entire track history